• Join FlightAware (Why Join?)
  • Login
  • US Flag 
04:26PM EDT


 

Airport Tracker/Info


-or-


 

Live Flight TrackerFlight Track Log ✈ N163CA ✈ 14-Jul-2013 ✈ X61 - KSUA

Flight Track Log - Related Links

Times and Time Zones

All times are in EDT time to prevent confusion due to time zone crossing. See the N163CA flight status page for this flight to view local times or setup timezone preferences in your user account.

Time Position Orientation Groundspeed Altitude Reporting Facility
EDT Latitude Longitude Course Direction KTS MPH feet Rate Location/Type
09:49PM 28.7833 -81.1667 141° Southeast 83 96 2,300  Level Orlando TRACON
09:50PM 28.7667 -81.1333 120° Southeast 98 113 3,000 600 Climbing Orlando TRACON
09:51PM 28.7333 -81.1167 156° South 98 113 3,600 600 Climbing Orlando TRACON
09:52PM 28.7167 -81.1000 139° Southeast 101 116 4,300 660 Climbing Orlando TRACON
09:53PM 28.7000 -81.0833 139° Southeast 96 110 4,900 540 Climbing Orlando TRACON
09:54PM 28.6667 -81.0667 156° South 101 116 5,400 300 Climbing Orlando TRACON
09:55PM 28.6161 -81.5192 141° Southeast  Level Estimated
09:55PM 28.6500 -81.0667 180° South 105 121 5,500  Level Orlando TRACON
09:56PM 28.6333 -81.0333 120° Southeast 105 121 5,500  Level Orlando TRACON
09:57PM 28.6000 -81.0333 180° South 103 119 5,500  Level Orlando TRACON
09:58PM 28.5833 -81.0000 120° Southeast 107 123 5,500  Level Orlando TRACON
09:59PM 28.5500 -80.9833 156° South 123 142 5,500  Level Orlando TRACON
10:00PM 28.5167 -80.9667 156° South 123 142 5,500  Level Orlando TRACON
10:01PM 28.5000 -80.9333 120° Southeast 121 139 5,500  Level Orlando TRACON
10:02PM 28.4667 -80.9167 156° South 119 137 5,500  Level Orlando TRACON
10:03PM 28.4500 -80.9000 139° Southeast 119 137 5,600  Climbing Orlando TRACON
10:05PM 28.3892 -80.8494 144° Southeast 125 144 5,500 -60 Descending Miami Center
10:06PM 28.3647 -80.8250 139° Southeast 125 144 5,500  Level Miami Center
10:07PM 28.3444 -80.8031 136° Southeast 117 135 5,500  Level Miami Center
10:08PM 28.3161 -80.7761 140° Southeast 117 135 5,600 -60 Climbing Miami Center
10:09PM 28.2853 -80.7561 150° Southeast 117 135 5,400 -120 Descending Miami Center
10:10PM 28.2567 -80.7339 146° Southeast 122 140 5,400  Level Miami Center
10:11PM 28.2258 -80.7186 156° South 122 140 5,400  Level Miami Center
10:12PM 28.2033 -80.6992 143° Southeast 115 132 5,400  Level Miami Center
10:13PM 28.1725 -80.6792 150° Southeast 115 132 5,500  Climbing Miami Center
10:14PM 28.1419 -80.6569 147° Southeast 115 132 5,500  Level Miami Center
10:15PM 28.1133 -80.6372 149° Southeast 120 138 5,500 -60 Level Miami Center
10:16PM 28.0803 -80.6219 158° South 126 145 5,400 -60 Descending Miami Center
10:17PM 28.0514 -80.6117 163° South 126 145 5,400 60 Level Miami Center
10:18PM 28.0183 -80.5964 158° South 126 145 5,600  Climbing Miami Center
10:19PM 27.9875 -80.5742 148° Southeast 126 145 5,500 -120 Descending Miami Center
10:20PM 27.9567 -80.5544 151° Southeast 126 145 5,400  Descending Miami Center
10:21PM 27.9278 -80.5417 159° South 126 145 5,500  Climbing Miami Center
10:22PM 27.8947 -80.5267 158° South 132 152 5,500  Level Miami Center
10:23PM 27.8597 -80.5089 156° South 132 152 5,500  Level Miami Center
10:24PM 27.8289 -80.4939 157° South 132 152 5,500  Level Miami Center
10:25PM 27.7981 -80.4764 153° Southeast 132 152 5,500  Level Miami Center
10:26PM 27.7692 -80.4614 155° Southeast 132 152 5,500  Level Miami Center
10:27PM 27.7361 -80.4486 161° South 132 152 5,500  Level Miami Center
10:28PM 27.7008 -80.4336 159° South 132 152 5,500  Level Miami Center
10:29PM 27.6658 -80.4183 159° South 132 152 5,500  Level Miami Center
10:30PM 27.6328 -80.4081 165° South 127 146 5,500  Level Miami Center
10:31PM 27.6017 -80.4000 167° South 127 146 5,500  Level Miami Center
10:32PM 27.5683 -80.3894 164° South 127 146 5,500  Level Miami Center
10:33PM 27.5311 -80.3744 160° South 127 146 5,500  Level Miami Center
10:34PM 27.5003 -80.3547 150° Southeast 127 146 5,500  Level Miami Center
10:35PM 27.4672 -80.3444 165° South 132 152 5,500  Level Miami Center
10:36PM 27.4383 -80.3294 155° Southeast 132 152 5,500  Level Miami Center
10:37PM 27.4053 -80.3144 158° South 132 152 5,500  Level Miami Center
10:38PM 27.3725 -80.2947 152° Southeast 132 152 5,500 -60 Level Miami Center
10:39PM 27.3372 -80.2819 162° South 132 152 5,400 -360 Descending Miami Center
10:40PM 27.3061 -80.2717 164° South 127 146 4,900 -780 Descending Miami Center
10:41PM 27.2750 -80.2567 157° South 127 146 3,900 -660 Descending Miami Center
10:42PM 27.2442 -80.2442 160° South 120 138 3,600 780 Descending Miami Center
10:43PM 27.2131 -80.2317 160° South 120 138 5,500 900 Climbing Miami Center
10:44PM 27.1819 -80.2189 160° South 120 138 5,500  Level Miami Center
10:45PM 27.1758 -80.2164 160° South 120 138 5,500  Level Miami Center
10:48PM 27.1667 -80.2167 270° West  Level FlightAware Approximate
10:55PM 27.1817 -80.2213 270° West  Level Estimated
10:56PM 27.1817 -80.2213 270° West  Level Estimated
10:57PM 27.1817 -80.2213 270° West  Level Estimated
10:58PM 27.1817 -80.2213 270° West  Level Estimated
10:59PM 27.1817 -80.2213 270° West  Level Estimated
11:00PM 27.1817 -80.2213 270° West  Level Estimated
11:01PM 27.1817 -80.2213 270° West  Level Estimated